Time;durP1;ratioP1;P1;durP2;ratioP2;P2;SDS_P1;SDS_P2;PMS_P1;PMS_P2;Temp;Humidity;BMP_temperature;BMP_pressure;BME280_temperature;BME280_humidity;BME280_pressure;Samples;Min_cycle;Max_cycle;Signal;HPM_P1;HPM_P2
2021/08/06 00:06:56;;;;;;;23.58;12.60;;;12.30;99.90;;;;;;20671020;28;20372;-54
2021/08/06 00:16:57;;;;;;;15.27;9.27;;;12.40;99.90;;;;;;20670184;28;20038;-52
2021/08/06 00:26:59;;;;;;;15.73;10.10;;;12.40;99.90;;;;;;20669506;28;20034;-53
2021/08/06 00:37:01;;;;;;;13.85;7.32;;;12.30;99.90;;;;;;20650678;28;20565;-55
2021/08/06 00:47:07;;;;;;;18.13;10.82;;;12.20;99.90;;;;;;20668335;28;20030;-52
2021/08/06 00:57:15;;;;;;;21.33;11.77;;;12.10;99.90;;;;;;20650341;28;20049;-55
2021/08/06 01:07:24;;;;;;;22.13;10.68;;;12.10;99.90;;;;;;20743049;28;20120;-51
2021/08/06 01:17:31;;;;;;;20.88;12.23;;;12.20;99.90;;;;;;20729169;28;20037;-51
2021/08/06 01:27:37;;;;;;;20.80;11.57;;;12.30;99.90;;;;;;20745895;28;20045;-53
2021/08/06 01:37:38;;;;;;;13.27;8.20;;;12.30;99.90;;;;;;20727540;28;20388;-55
2021/08/06 01:47:51;;;;;;;19.95;10.85;;;12.20;99.90;;;;;;20726314;28;20036;-51
2021/08/06 01:58:05;;;;;;;12.15;6.93;;;12.00;99.90;;;;;;20726385;28;20038;-55
2021/08/06 02:08:14;;;;;;;18.13;10.40;;;12.00;99.90;;;;;;20710228;28;20033;-54
2021/08/06 02:18:22;;;;;;;18.88;10.18;;;12.00;99.90;;;;;;20724735;28;20145;-54
2021/08/06 02:28:44;;;;;;;22.80;12.45;;;11.90;99.90;;;;;;20723910;28;20314;-53
2021/08/06 02:38:47;;;;;;;24.30;13.40;;;11.80;99.90;;;;;;20723251;28;20034;-52
2021/08/06 02:48:49;;;;;;;20.67;11.02;;;11.70;99.90;;;;;;20740372;28;20030;-52
2021/08/06 02:58:53;;;;;;;20.88;11.25;;;11.60;99.90;;;;;;20721908;28;20093;-52
2021/08/06 03:08:56;;;;;;;25.40;12.82;;;11.60;99.90;;;;;;20722646;28;20038;-53
2021/08/06 03:18:59;;;;;;;18.98;9.52;;;11.50;99.90;;;;;;20721452;28;20550;-52
2021/08/06 03:29:02;;;;;;;9.10;5.00;;;11.50;99.90;;;;;;20720673;28;20411;-54
2021/08/06 03:39:05;;;;;;;7.47;4.30;;;11.40;99.90;;;;;;20737894;28;20033;-51
2021/08/06 03:49:07;;;;;;;6.35;3.65;;;11.70;99.90;;;;;;20722294;28;20048;-54
2021/08/06 03:59:09;;;;;;;5.95;4.10;;;11.80;99.90;;;;;;20734240;28;20108;-55
2021/08/06 04:09:11;;;;;;;7.38;4.50;;;11.60;99.90;;;;;;20694220;28;20030;-56
2021/08/06 04:19:13;;;;;;;6.35;3.47;;;11.50;99.90;;;;;;20722355;28;20125;-54
2021/08/06 04:29:15;;;;;;;6.70;3.65;;;11.40;99.90;;;;;;20692555;28;20101;-51
2021/08/06 04:39:17;;;;;;;10.70;4.70;;;11.40;99.90;;;;;;20709911;28;20042;-52
2021/08/06 04:49:19;;;;;;;7.60;4.07;;;11.50;99.90;;;;;;20706676;28;20042;-55
2021/08/06 04:59:21;;;;;;;9.18;4.70;;;11.50;99.90;;;;;;20703504;28;20042;-54
2021/08/06 05:09:23;;;;;;;11.98;5.68;;;11.60;99.90;;;;;;20662535;28;20093;-53
2021/08/06 05:19:25;;;;;;;15.93;7.07;;;11.60;99.90;;;;;;20648098;28;20034;-50
2021/08/06 05:29:27;;;;;;;13.98;7.40;;;11.70;99.90;;;;;;20647006;28;20092;-55
2021/08/06 05:39:29;;;;;;;16.70;8.32;;;11.80;99.90;;;;;;20663922;28;20035;-55
2021/08/06 05:49:34;;;;;;;15.20;8.38;;;11.90;99.90;;;;;;20646290;28;20034;-54
2021/08/06 05:59:36;;;;;;;14.77;8.70;;;12.00;99.90;;;;;;20694203;28;20519;-54
2021/08/06 06:09:38;;;;;;;14.15;7.65;;;12.20;99.90;;;;;;20742918;28;20045;-55
2021/08/06 06:19:44;;;;;;;13.40;6.95;;;12.40;99.90;;;;;;20724477;28;20089;-51
2021/08/06 06:29:46;;;;;;;7.85;4.70;;;12.80;99.90;;;;;;20740354;28;20054;-53
2021/08/06 06:39:48;;;;;;;3.88;2.83;;;14.10;99.90;;;;;;20722429;28;20045;-56
2021/08/06 06:49:50;;;;;;;1.85;0.80;;;19.10;99.90;;;;;;20740135;28;20033;-54
2021/08/06 06:59:53;;;;;;;0.50;0.40;;;23.00;99.90;;;;;;20721644;28;20117;-49
2021/08/06 07:09:55;;;;;;;1.23;0.50;;;25.40;97.30;;;;;;20738749;28;20038;-50
2021/08/06 07:19:58;;;;;;;2.03;0.82;;;25.60;93.80;;;;;;20721057;28;20807;-52
2021/08/06 07:29:59;;;;;;;4.38;1.30;;;24.60;93.60;;;;;;20720564;28;20037;-50
2021/08/06 07:40:02;;;;;;;1.20;1.08;;;23.90;96.00;;;;;;20719942;28;20046;-59
2021/08/06 07:50:06;;;;;;;2.05;1.50;;;23.90;95.50;;;;;;20728973;28;20487;-57
2021/08/06 08:00:09;;;;;;;2.40;1.33;;;21.70;97.10;;;;;;20733951;28;20037;-59
2021/08/06 08:10:19;;;;;;;5.38;2.60;;;20.00;99.90;;;;;;20752050;28;20034;-57
2021/08/06 08:20:22;;;;;;;4.50;2.60;;;19.30;99.90;;;;;;20729898;28;20034;-53
2021/08/06 08:30:24;;;;;;;7.55;2.58;;;20.50;99.90;;;;;;20750067;28;20652;-52
2021/08/06 08:40:29;;;;;;;2.92;2.30;;;21.20;99.90;;;;;;20734686;28;20037;-52
2021/08/06 08:50:31;;;;;;;4.03;2.50;;;21.80;99.90;;;;;;20730544;28;20046;-56
2021/08/06 09:00:34;;;;;;;3.10;2.80;;;22.30;99.90;;;;;;20729654;28;20042;-52
2021/08/06 09:10:41;;;;;;;5.28;2.30;;;21.30;99.90;;;;;;20761123;28;20034;-53
2021/08/06 09:21:15;;;;;;;4.03;2.20;;;22.90;99.90;;;;;;20732167;28;20448;-51
2021/08/06 09:31:17;;;;;;;3.17;2.45;;;23.90;99.90;;;;;;20745377;28;20100;-49
2021/08/06 09:41:40;;;;;;;2.40;1.95;;;23.80;99.90;;;;;;20726637;28;20050;-52
2021/08/06 09:51:43;;;;;;;5.25;2.53;;;22.60;99.90;;;;;;20743905;28;20033;-52
2021/08/06 10:01:45;;;;;;;5.15;2.70;;;21.30;99.90;;;;;;20740261;28;20046;-57
2021/08/06 10:11:47;;;;;;;3.08;2.40;;;20.80;99.90;;;;;;20741570;28;20064;-52
2021/08/06 10:21:50;;;;;;;4.18;3.22;;;21.90;99.90;;;;;;20741549;28;20054;-49
2021/08/06 10:32:18;;;;;;;4.53;2.60;;;21.30;99.90;;;;;;20741059;28;20092;-48
2021/08/06 10:42:29;;;;;;;3.57;2.17;;;21.10;99.90;;;;;;20738977;28;20045;-54
2021/08/06 10:52:31;;;;;;;4.45;2.35;;;24.30;99.90;;;;;;20740070;28;20515;-50
2021/08/06 11:02:44;;;;;;;9.32;2.63;;;27.20;99.90;;;;;;20739149;28;20050;-53
2021/08/06 11:12:46;;;;;;;3.97;3.03;;;27.70;97.80;;;;;;20739047;28;20029;-47
2021/08/06 11:22:49;;;;;;;4.68;2.50;;;27.70;98.50;;;;;;20744339;28;20038;-47
2021/08/06 11:32:54;;;;;;;4.20;3.05;;;26.60;97.50;;;;;;20736724;28;20109;-54
2021/08/06 11:42:57;;;;;;;4.40;2.53;;;25.90;99.50;;;;;;20754208;28;20026;-53
2021/08/06 11:52:59;;;;;;;7.57;1.88;;;25.30;98.80;;;;;;20753049;28;20030;-49
2021/08/06 12:03:14;;;;;;;3.55;2.35;;;26.50;99.90;;;;;;20752223;28;20056;-51
2021/08/06 12:13:20;;;;;;;2.45;1.55;;;27.30;99.90;;;;;;20734162;28;20042;-57
2021/08/06 12:23:23;;;;;;;1.93;1.40;;;26.80;99.30;;;;;;20751382;28;20085;-54
2021/08/06 12:33:25;;;;;;;7.50;1.77;;;25.70;96.80;;;;;;20747946;28;20038;-52
2021/08/06 12:43:26;;;;;;;4.65;1.45;;;25.30;97.20;;;;;;20749479;28;20030;-51
2021/08/06 12:53:32;;;;;;;2.45;1.58;;;24.00;99.10;;;;;;20748448;28;20030;-50
2021/08/06 13:03:44;;;;;;;3.35;1.40;;;24.80;98.10;;;;;;20707855;28;20101;-53
2021/08/06 13:13:48;;;;;;;2.58;1.33;;;24.50;96.30;;;;;;20690313;28;20034;-51
2021/08/06 13:23:52;;;;;;;3.80;1.30;;;24.10;98.90;;;;;;20710038;28;20396;-57
2021/08/06 13:33:53;;;;;;;2.15;1.30;;;24.40;97.40;;;;;;20702134;28;20052;-52
2021/08/06 13:43:55;;;;;;;3.78;1.23;;;24.80;97.00;;;;;;20712071;28;20041;-49
2021/08/06 13:53:57;;;;;;;1.63;1.08;;;24.80;96.20;;;;;;20696670;28;20344;-56
2021/08/06 14:03:59;;;;;;;2.00;1.20;;;24.90;94.20;;;;;;20677842;28;20052;-50
2021/08/06 14:14:01;;;;;;;14.10;1.92;;;24.60;94.70;;;;;;20661933;28;20042;-55
2021/08/06 14:24:03;;;;;;;1.73;1.10;;;24.80;94.40;;;;;;20661427;28;20047;-50
2021/08/06 14:34:06;;;;;;;1.45;1.17;;;25.20;96.10;;;;;;20661184;28;20038;-56
2021/08/06 14:44:08;;;;;;;2.95;1.52;;;25.90;95.20;;;;;;20659413;28;20042;-54
2021/08/06 14:54:10;;;;;;;5.50;1.80;;;25.70;95.20;;;;;;20658950;28;20034;-51
2021/08/06 15:04:12;;;;;;;2.53;1.80;;;25.80;94.70;;;;;;20711876;28;20045;-50
2021/08/06 15:14:14;;;;;;;2.47;1.75;;;25.40;94.50;;;;;;20738653;28;20037;-53
2021/08/06 15:24:16;;;;;;;7.57;2.10;;;25.40;94.90;;;;;;20737695;28;20431;-53
2021/08/06 15:34:18;;;;;;;1.70;1.60;;;26.00;92.40;;;;;;20738114;28;20041;-53
2021/08/06 15:44:22;;;;;;;3.35;1.42;;;26.50;93.20;;;;;;20738001;28;20026;-51
2021/08/06 15:54:28;;;;;;;2.45;1.88;;;26.60;91.30;;;;;;20739556;28;20053;-52
2021/08/06 16:04:29;;;;;;;3.88;1.95;;;27.20;89.60;;;;;;20736508;28;20049;-56
2021/08/06 16:14:32;;;;;;;6.70;1.60;;;27.50;89.50;;;;;;20748650;28;20042;-53
2021/08/06 16:24:33;;;;;;;2.70;1.80;;;26.90;87.90;;;;;;20750706;28;20085;-50
2021/08/06 16:34:35;;;;;;;3.30;1.60;;;25.20;90.50;;;;;;20749879;28;20034;-52
2021/08/06 16:44:37;;;;;;;3.20;1.75;;;22.50;94.30;;;;;;20748303;28;20045;-54
2021/08/06 16:54:39;;;;;;;4.55;2.65;;;20.10;97.60;;;;;;20746709;28;20383;-53
2021/08/06 17:04:41;;;;;;;5.90;2.30;;;18.50;99.90;;;;;;20686681;28;20051;-55
2021/08/06 17:14:43;;;;;;;5.75;2.20;;;17.50;99.90;;;;;;20687456;28;20093;-63
2021/08/06 17:24:45;;;;;;;2.65;2.25;;;16.80;99.90;;;;;;20677563;28;20034;-53
2021/08/06 17:34:47;;;;;;;4.45;2.10;;;16.10;99.90;;;;;;20675344;28;20359;-57
2021/08/06 17:44:49;;;;;;;4.47;1.90;;;15.60;99.90;;;;;;20633087;28;20035;-56
2021/08/06 17:54:50;;;;;;;7.68;2.40;;;15.30;99.90;;;;;;20656848;28;20046;-56
2021/08/06 18:04:53;;;;;;;2.33;1.60;;;14.80;99.90;;;;;;20727647;28;20243;-52
2021/08/06 18:14:55;;;;;;;3.47;1.50;;;14.60;99.90;;;;;;20724989;28;20087;-53
2021/08/06 18:24:58;;;;;;;2.97;2.00;;;14.20;99.90;;;;;;20741458;28;20050;-55
2021/08/06 18:35:01;;;;;;;2.90;1.65;;;13.90;99.90;;;;;;20740501;28;20034;-51
2021/08/06 18:45:04;;;;;;;2.75;1.88;;;13.60;99.90;;;;;;20740547;28;20041;-57
2021/08/06 18:55:06;;;;;;;4.47;2.40;;;13.50;99.90;;;;;;20739945;28;20091;-54
2021/08/06 19:05:09;;;;;;;4.43;2.80;;;13.40;99.90;;;;;;20740661;28;20054;-56
2021/08/06 19:15:11;;;;;;;5.10;2.40;;;13.20;99.90;;;;;;20738954;28;20037;-54
2021/08/06 19:25:13;;;;;;;4.97;1.63;;;13.10;99.90;;;;;;20738931;28;20030;-51
2021/08/06 19:35:14;;;;;;;1.88;1.30;;;13.30;99.90;;;;;;20733730;28;20108;-55
2021/08/06 19:45:18;;;;;;;3.42;0.93;;;13.40;99.90;;;;;;20738473;28;20041;-55
2021/08/06 19:55:19;;;;;;;2.55;1.00;;;13.00;99.90;;;;;;20753952;28;20108;-55
2021/08/06 20:05:21;;;;;;;2.08;1.25;;;13.00;99.90;;;;;;20752920;28;20491;-54
2021/08/06 20:15:26;;;;;;;2.28;1.10;;;13.00;99.90;;;;;;20751344;28;20065;-51
2021/08/06 20:25:28;;;;;;;2.83;1.48;;;13.10;99.90;;;;;;20751650;28;20085;-48
2021/08/06 20:35:30;;;;;;;2.63;1.20;;;14.40;99.90;;;;;;20750839;28;20809;-53
2021/08/06 20:45:32;;;;;;;3.58;1.55;;;14.50;99.90;;;;;;20750315;28;20030;-53
2021/08/06 20:55:34;;;;;;;2.92;1.75;;;14.50;99.90;;;;;;20748844;28;20476;-53
2021/08/06 21:05:36;;;;;;;2.97;1.63;;;14.40;99.90;;;;;;20681864;28;20058;-48
2021/08/06 21:15:39;;;;;;;3.83;2.03;;;14.20;99.90;;;;;;20667201;28;20043;-51
2021/08/06 21:25:41;;;;;;;4.22;1.67;;;14.10;99.90;;;;;;20666000;28;20110;-51
2021/08/06 21:35:46;;;;;;;4.63;1.63;;;13.90;99.90;;;;;;20662417;28;20484;-50
2021/08/06 21:45:49;;;;;;;2.53;1.20;;;13.80;99.90;;;;;;20665048;28;20030;-51
2021/08/06 21:55:53;;;;;;;2.92;1.38;;;13.70;99.90;;;;;;20648708;28;20056;-52
2021/08/06 22:05:54;;;;;;;5.35;2.65;;;13.60;99.90;;;;;;20736208;28;20050;-50
2021/08/06 22:15:57;;;;;;;7.05;2.50;;;13.80;99.90;;;;;;20742345;28;20468;-51
2021/08/06 22:25:58;;;;;;;5.32;2.38;;;14.10;99.90;;;;;;20742785;28;20080;-49
2021/08/06 22:36:00;;;;;;;8.25;3.10;;;14.20;99.90;;;;;;20741634;28;20108;-52
2021/08/06 22:46:02;;;;;;;9.23;3.35;;;14.00;99.90;;;;;;20720738;28;20427;-49
2021/08/06 22:56:04;;;;;;;8.07;4.95;;;14.00;99.90;;;;;;20740878;28;20030;-52
2021/08/06 23:06:06;;;;;;;12.57;6.53;;;14.10;99.90;;;;;;20740065;28;20037;-49
2021/08/06 23:16:07;;;;;;;9.65;5.65;;;14.20;99.90;;;;;;20739372;28;20029;-51
2021/08/06 23:26:09;;;;;;;6.07;3.60;;;14.70;99.90;;;;;;20739470;28;20026;-50
2021/08/06 23:36:11;;;;;;;8.48;4.55;;;15.00;99.90;;;;;;20721436;28;20037;-49
2021/08/06 23:46:12;;;;;;;9.55;5.00;;;14.60;99.90;;;;;;20739057;28;20165;-52
2021/08/06 23:56:14;;;;;;;11.43;5.28;;;14.20;99.90;;;;;;20738079;28;20369;-49
